Terminal Aerodrome Forecast
Issued by NWS

Home | Current Version | Previous Version | Text Only | Print | Product List | Glossary On
Versions: 1 2 3 4 5 6 7 8 9 10 11 12 13
908
FTAK31 PAJN 252320
TAFAKT
TAF
PAKT 252320Z 2600/2624 14005KT P6SM VCSH BKN035 OVC050
     FM261200 14007KT P6SM -RA BKN025 OVC035=

USA.gov is the U.S. government's official web portal to all federal, state and local government web resources and services.